createdAt,value
2019-05-21T00:00:35.268Z,36.20
2019-05-21T00:03:10.091Z,33.80
2019-05-21T00:05:40.328Z,30.60
2019-05-21T00:08:10.634Z,35.40
2019-05-21T00:10:40.948Z,31.90
2019-05-21T00:13:16.984Z,32.93
2019-05-21T00:15:54.710Z,28.30
2019-05-21T00:18:25.243Z,23.70
2019-05-21T00:20:54.086Z,23.10
2019-05-21T00:23:22.637Z,22.73
2019-05-21T00:25:51.151Z,21.50
2019-05-21T00:28:40.544Z,21.50
2019-05-21T00:31:44.937Z,20.20
2019-05-21T00:34:49.538Z,20.37
2019-05-21T00:37:54.088Z,19.37
2019-05-21T00:40:58.871Z,20.03
2019-05-21T00:44:03.212Z,21.70
2019-05-21T00:46:29.280Z,18.43
2019-05-21T00:48:57.816Z,20.07
2019-05-21T00:51:35.129Z,17.93
2019-05-21T00:54:21.038Z,17.17
2019-05-21T01:00:11.883Z,20.13
2019-05-21T01:02:41.294Z,18.50
2019-05-21T01:05:13.358Z,21.00
2019-05-21T01:07:43.553Z,22.90
2019-05-21T01:10:12.421Z,21.53
2019-05-21T01:12:46.228Z,22.40
2019-05-21T01:59:57.330Z,25.47
2019-05-21T04:20:43.599Z,35.73
2019-05-21T04:23:50.171Z,32.43
2019-05-21T05:03:33.912Z,21.00
2019-05-21T05:12:02.826Z,32.00
2019-05-21T05:50:53.061Z,44.23
2019-05-21T05:57:07.377Z,43.60
2019-05-21T06:00:20.286Z,40.33
2019-05-21T06:06:37.219Z,41.00
2019-05-21T06:09:06.173Z,41.60
2019-05-21T06:12:25.287Z,42.30
2019-05-21T06:15:11.849Z,39.30
2019-05-21T06:21:32.861Z,44.20
2019-05-21T06:24:33.922Z,38.80
2019-05-21T06:31:20.820Z,38.40
2019-05-21T06:33:55.834Z,42.07
2019-05-21T06:36:37.108Z,41.10
2019-05-21T06:39:18.154Z,42.53
2019-05-21T07:02:48.027Z,38.17
2019-05-21T07:05:36.339Z,33.63
2019-05-21T07:08:10.452Z,36.23
2019-05-21T07:10:43.265Z,43.13
2019-05-21T07:13:15.023Z,36.73
2019-05-21T07:15:46.951Z,35.70
2019-05-21T07:18:18.958Z,36.43
2019-05-21T07:20:50.497Z,37.77
2019-05-21T07:23:22.030Z,34.67
2019-05-21T07:25:53.603Z,35.60
2019-05-21T07:28:22.804Z,41.60
2019-05-21T07:30:56.165Z,37.07
2019-05-21T07:33:34.985Z,38.13
2019-05-21T07:36:03.814Z,37.80
2019-05-21T07:38:52.875Z,37.27
2019-05-21T07:41:10.869Z,36.27
2019-05-21T07:43:39.800Z,35.20
2019-05-21T07:46:08.606Z,33.23
2019-05-21T07:48:40.631Z,32.70
2019-05-21T07:51:12.096Z,33.03
2019-05-21T07:53:41.113Z,34.27
2019-05-21T07:56:10.121Z,38.13
2019-05-21T07:58:40.505Z,44.10
2019-05-21T08:01:16.631Z,46.57
2019-05-21T08:03:45.581Z,51.00
2019-05-21T08:06:19.157Z,48.67
2019-05-21T08:08:50.813Z,52.20
2019-05-21T08:11:33.741Z,50.67
2019-05-21T08:14:04.288Z,42.00
2019-05-21T08:16:35.936Z,45.90
2019-05-21T08:19:07.259Z,42.30
2019-05-21T08:21:48.504Z,39.93
2019-05-21T08:27:00.552Z,30.40
2019-05-21T08:30:29.756Z,28.50
2019-05-21T08:32:19.857Z,31.67
2019-05-21T08:59:00.333Z,40.60
2019-05-21T09:01:35.076Z,33.50
2019-05-21T09:06:55.216Z,26.70
2019-05-21T09:09:27.553Z,26.80
2019-05-21T09:15:48.376Z,22.70
2019-05-21T09:18:22.009Z,21.00
2019-05-21T09:20:58.751Z,21.23
2019-05-21T09:23:27.226Z,25.20
2019-05-21T09:25:58.782Z,21.53
2019-05-21T09:34:48.587Z,18.30
2019-05-21T09:37:19.810Z,22.50
2019-05-21T09:39:52.320Z,20.23
2019-05-21T09:45:09.044Z,23.90
2019-05-21T09:47:39.482Z,20.00
2019-05-21T09:50:08.912Z,23.53
2019-05-21T10:02:38.555Z,20.47
2019-05-21T10:05:29.244Z,23.20
2019-05-21T10:07:59.721Z,20.93
2019-05-21T10:10:28.282Z,20.07
2019-05-21T10:15:47.782Z,16.77
2019-05-21T10:18:25.566Z,17.53
2019-05-21T10:20:55.744Z,17.07
2019-05-21T10:24:02.334Z,18.93
2019-05-21T10:26:34.601Z,15.63
2019-05-21T10:29:09.703Z,15.33
2019-05-21T10:31:38.603Z,17.27
2019-05-21T10:37:54.388Z,16.00
2019-05-21T10:48:50.989Z,16.60
2019-05-21T10:51:32.302Z,15.27
2019-05-21T10:54:18.177Z,16.53
2019-05-21T10:56:47.400Z,18.50
2019-05-21T10:59:17.214Z,17.37
2019-05-21T11:01:48.948Z,21.80
2019-05-21T11:04:45.863Z,17.13
2019-05-21T11:07:39.272Z,15.93
2019-05-21T11:10:21.700Z,16.50
2019-05-21T11:12:51.795Z,18.50
2019-05-21T11:18:43.848Z,15.10
2019-05-21T11:24:21.256Z,17.50
2019-05-21T11:30:12.426Z,16.30
2019-05-21T11:32:41.152Z,21.27
2019-05-21T11:35:10.270Z,18.00
2019-05-21T11:44:31.359Z,19.70
2019-05-21T11:47:27.606Z,20.37
2019-05-21T11:50:58.845Z,20.23
2019-05-21T12:17:08.868Z,19.97
2019-05-21T12:19:37.763Z,20.70
2019-05-21T12:22:37.913Z,21.70
2019-05-21T12:28:44.709Z,18.57
2019-05-21T12:34:23.971Z,21.37
2019-05-21T12:36:56.942Z,22.47
2019-05-21T12:49:05.181Z,22.10
2019-05-21T12:51:33.638Z,24.93
2019-05-21T12:54:02.303Z,20.80
2019-05-21T12:56:30.773Z,24.73
2019-05-21T12:59:00.932Z,22.97
2019-05-21T13:01:30.094Z,24.30
2019-05-21T13:03:58.566Z,23.47
2019-05-21T13:06:27.092Z,24.67
2019-05-21T13:08:55.660Z,21.93
2019-05-21T13:11:24.169Z,27.60
2019-05-21T13:13:52.811Z,21.00
2019-05-21T13:16:21.311Z,22.70
2019-05-21T13:18:49.882Z,22.50
2019-05-21T13:21:18.347Z,23.93
2019-05-21T13:23:46.776Z,22.73
2019-05-21T13:26:15.369Z,23.40
2019-05-21T13:28:43.924Z,23.77
2019-05-21T13:31:12.464Z,28.40
2019-05-21T13:33:40.884Z,25.00
2019-05-21T13:36:09.483Z,27.30
2019-05-21T13:38:38.121Z,24.77
2019-05-21T13:41:06.874Z,25.93
2019-05-21T13:43:35.421Z,27.80
2019-05-21T13:46:04.887Z,24.40
2019-05-21T13:48:33.394Z,28.50
2019-05-21T13:51:02.249Z,28.17
2019-05-21T13:53:30.740Z,29.30
2019-05-21T13:55:59.225Z,26.87
2019-05-21T13:58:27.749Z,28.53
2019-05-21T14:00:56.275Z,26.00
2019-05-21T14:03:25.068Z,25.07
2019-05-21T14:05:53.524Z,24.30
2019-05-21T14:08:22.014Z,27.10
2019-05-21T14:10:50.632Z,27.23
2019-05-21T14:13:19.602Z,29.67
2019-05-21T14:15:48.130Z,29.27
2019-05-21T14:18:16.845Z,29.97
2019-05-21T14:20:45.309Z,25.20
2019-05-21T14:23:13.785Z,25.60
2019-05-21T14:25:42.317Z,26.10
2019-05-21T14:28:10.786Z,26.70
2019-05-21T14:30:39.484Z,23.63
2019-05-21T14:33:08.200Z,28.40
2019-05-21T14:35:36.796Z,26.23
2019-05-21T14:38:05.499Z,26.23
2019-05-21T14:40:34.869Z,25.03
2019-05-21T14:43:03.763Z,25.57
2019-05-21T14:45:34.189Z,25.90
2019-05-21T14:48:03.272Z,23.37
2019-05-21T14:50:31.809Z,24.23
2019-05-21T14:53:00.352Z,24.70
2019-05-21T14:55:29.093Z,23.27
2019-05-21T14:57:58.971Z,25.03
2019-05-21T15:00:37.921Z,26.23
2019-05-21T15:03:06.462Z,26.17
2019-05-21T15:05:35.546Z,24.37
2019-05-21T15:08:04.956Z,26.13
2019-05-21T15:10:47.364Z,26.03
2019-05-21T15:13:06.085Z,25.67
2019-05-21T15:15:35.213Z,25.67
2019-05-21T15:18:03.736Z,23.40
2019-05-21T15:20:45.802Z,22.77
2019-05-21T15:23:14.263Z,25.20
2019-05-21T15:25:44.785Z,24.37
2019-05-21T15:28:13.252Z,26.00
2019-05-21T15:30:41.690Z,24.70
2019-05-21T15:33:10.151Z,25.53
2019-05-21T15:35:38.594Z,23.60
2019-05-21T15:38:07.119Z,21.87
2019-05-21T15:40:35.726Z,24.03
2019-05-21T15:43:04.406Z,23.30
2019-05-21T15:45:32.881Z,24.20
2019-05-21T15:48:01.674Z,23.83
2019-05-21T15:50:30.329Z,23.60
2019-05-21T15:52:58.830Z,23.13
2019-05-21T15:55:27.290Z,23.17
2019-05-21T15:57:55.886Z,22.07
2019-05-21T16:00:24.895Z,22.17
2019-05-21T16:02:53.351Z,25.70
2019-05-21T16:05:21.932Z,23.93
2019-05-21T16:07:50.371Z,23.30
2019-05-21T16:10:18.995Z,24.17
2019-05-21T16:12:47.434Z,28.27
2019-05-21T16:15:15.900Z,29.63
2019-05-21T16:17:44.348Z,25.30
2019-05-21T16:20:13.438Z,24.63
2019-05-21T16:22:41.921Z,24.47
2019-05-21T16:25:10.629Z,23.53
2019-05-21T16:27:39.133Z,24.80
2019-05-21T16:30:08.312Z,24.57
2019-05-21T16:32:36.920Z,24.33
2019-05-21T16:35:07.425Z,24.33
2019-05-21T16:37:36.204Z,24.87
2019-05-21T16:40:07.004Z,25.97
2019-05-21T16:42:35.578Z,25.10
2019-05-21T16:45:06.674Z,25.00
2019-05-21T16:47:44.472Z,24.43
2019-05-21T16:50:07.367Z,25.27
2019-05-21T16:52:36.097Z,23.37
2019-05-21T16:55:06.393Z,24.00
2019-05-21T16:57:34.872Z,27.00
2019-05-21T17:00:05.334Z,25.40
2019-05-21T17:02:33.881Z,23.70
2019-05-21T17:05:02.789Z,25.17
2019-05-21T17:07:31.336Z,23.90
2019-05-21T17:09:59.786Z,24.83
2019-05-21T17:12:28.275Z,25.13
2019-05-21T17:14:57.043Z,25.77
2019-05-21T17:17:25.656Z,24.70
2019-05-21T17:19:54.193Z,24.47
2019-05-21T17:22:22.705Z,21.60
2019-05-21T17:24:51.501Z,23.70
2019-05-21T17:27:21.645Z,23.67
2019-05-21T17:29:50.137Z,23.00
2019-05-21T17:32:18.664Z,23.37
2019-05-21T17:34:47.256Z,22.70
2019-05-21T17:37:16.080Z,23.90
2019-05-21T17:39:44.605Z,23.10
2019-05-21T17:42:15.822Z,23.63
2019-05-21T17:44:43.527Z,21.73
2019-05-21T17:47:12.063Z,22.27
2019-05-21T17:49:40.640Z,23.33
2019-05-21T17:52:09.161Z,22.87
2019-05-21T17:54:37.715Z,22.23
2019-05-21T17:57:06.218Z,20.87
2019-05-21T17:59:34.664Z,21.73
2019-05-21T18:02:04.820Z,22.37
2019-05-21T18:04:33.761Z,23.13
2019-05-21T18:07:03.178Z,21.20
2019-05-21T18:09:32.883Z,23.20
2019-05-21T18:12:01.975Z,24.57
2019-05-21T18:14:31.045Z,23.60
2019-05-21T18:16:59.612Z,22.63
2019-05-21T18:19:28.450Z,22.97
2019-05-21T18:21:57.036Z,23.00
2019-05-21T18:24:25.675Z,20.80
2019-05-21T18:26:54.277Z,21.73
2019-05-21T18:29:22.805Z,21.47
2019-05-21T18:31:51.342Z,20.03
2019-05-21T18:34:19.995Z,21.93
2019-05-21T18:36:48.515Z,21.77
2019-05-21T18:39:17.601Z,19.73
2019-05-21T18:41:46.048Z,21.20
2019-05-21T18:44:14.516Z,23.23
2019-05-21T18:46:43.096Z,20.73
2019-05-21T18:49:11.633Z,20.37
2019-05-21T18:51:40.102Z,23.20
2019-05-21T18:54:08.620Z,22.20
2019-05-21T18:56:37.100Z,21.77
2019-05-21T18:59:05.784Z,20.67
2019-05-21T19:01:34.317Z,19.20
2019-05-21T19:04:02.823Z,19.90
2019-05-21T19:06:31.337Z,22.50
2019-05-21T19:08:59.788Z,22.07
2019-05-21T19:11:28.366Z,21.30
2019-05-21T19:13:57.082Z,20.20
2019-05-21T19:16:25.587Z,19.77
2019-05-21T19:18:54.041Z,20.53
2019-05-21T19:21:22.480Z,21.57
2019-05-21T19:23:51.037Z,19.30
2019-05-21T19:26:19.512Z,19.93
2019-05-21T19:28:48.008Z,18.90
2019-05-21T19:31:16.538Z,20.57
2019-05-21T19:33:45.072Z,20.00
2019-05-21T19:36:13.533Z,20.43
2019-05-21T19:38:41.965Z,21.10
2019-05-21T19:41:10.791Z,19.03
2019-05-21T19:43:39.588Z,20.10
2019-05-21T19:46:08.099Z,17.53
2019-05-21T19:48:36.556Z,16.67
2019-05-21T19:51:05.068Z,15.50
2019-05-21T19:53:33.572Z,16.23
2019-05-21T19:56:02.239Z,16.53
2019-05-21T19:58:30.906Z,16.90
2019-05-21T20:00:59.583Z,16.23
2019-05-21T20:03:28.216Z,18.80
2019-05-21T20:05:58.525Z,16.30
2019-05-21T20:08:27.036Z,19.43
2019-05-21T20:10:55.558Z,19.30
2019-05-21T20:13:32.094Z,17.37
2019-05-21T20:15:54.897Z,19.13
2019-05-21T20:18:23.949Z,17.73
2019-05-21T20:20:53.048Z,17.07
2019-05-21T20:23:21.955Z,19.70
2019-05-21T20:25:56.666Z,18.50
2019-05-21T20:28:21.915Z,18.17
2019-05-21T20:30:50.466Z,17.03
2019-05-21T20:33:18.950Z,17.60
2019-05-21T20:35:48.528Z,19.73
2019-05-21T20:38:18.169Z,17.70
2019-05-21T20:40:47.301Z,18.47
2019-05-21T20:43:15.957Z,19.90
2019-05-21T20:45:46.314Z,20.97
2019-05-21T20:48:16.210Z,19.73
2019-05-21T20:50:45.415Z,16.70
2019-05-21T20:53:15.321Z,17.37
2019-05-21T20:55:44.126Z,14.67
2019-05-21T20:58:12.843Z,16.03
2019-05-21T21:00:48.803Z,14.70
2019-05-21T21:03:17.528Z,15.10
2019-05-21T21:05:45.980Z,13.77
2019-05-21T21:08:14.720Z,15.97
2019-05-21T21:10:43.181Z,14.80
2019-05-21T21:13:13.376Z,14.80
2019-05-21T21:15:45.041Z,13.67
2019-05-21T21:18:13.680Z,15.03
2019-05-21T21:20:42.336Z,14.10
2019-05-21T21:23:10.860Z,15.00
2019-05-21T21:25:39.589Z,16.13
2019-05-21T21:28:08.385Z,17.27
2019-05-21T21:30:38.932Z,18.60
2019-05-21T21:33:08.510Z,15.73
2019-05-21T21:35:37.576Z,16.80
2019-05-21T21:38:07.683Z,17.47
2019-05-21T21:40:36.137Z,16.57
2019-05-21T21:43:07.933Z,16.50
2019-05-21T21:45:35.218Z,17.10
2019-05-21T21:48:04.486Z,17.13
2019-05-21T21:50:33.917Z,20.20
2019-05-21T21:53:02.505Z,17.27
2019-05-21T21:55:32.068Z,17.07
2019-05-21T21:58:00.728Z,18.67
2019-05-21T22:01:00.680Z,18.37
2019-05-21T22:03:30.779Z,17.20
2019-05-21T22:06:01.433Z,16.13
2019-05-21T22:08:31.254Z,16.30
2019-05-21T22:11:00.228Z,17.70
2019-05-21T22:13:28.896Z,19.30
2019-05-21T22:15:58.195Z,20.27
2019-05-21T22:18:27.387Z,20.13
2019-05-21T22:20:56.300Z,22.93
2019-05-21T22:23:25.089Z,20.60
2019-05-21T22:25:53.872Z,21.50
2019-05-21T22:28:23.050Z,23.10
2019-05-21T22:30:51.847Z,24.63
2019-05-21T22:33:20.857Z,24.47
2019-05-21T22:35:49.466Z,23.97
2019-05-21T22:38:17.948Z,23.00
2019-05-21T22:40:46.406Z,24.10
2019-05-21T22:43:14.899Z,24.20
2019-05-21T22:45:43.431Z,25.80
2019-05-21T22:48:12.220Z,25.13
2019-05-21T22:50:40.750Z,24.90
2019-05-21T22:53:09.440Z,25.67
2019-05-21T22:55:38.176Z,26.63
2019-05-21T22:58:06.884Z,24.53
2019-05-21T23:00:35.946Z,26.83
2019-05-21T23:03:04.895Z,25.80
2019-05-21T23:05:33.566Z,26.40
2019-05-21T23:08:02.598Z,25.63
2019-05-21T23:10:31.447Z,27.27
2019-05-21T23:13:00.663Z,28.57
2019-05-21T23:15:29.186Z,29.10
2019-05-21T23:17:58.115Z,29.83
2019-05-21T23:20:27.753Z,30.47
2019-05-21T23:22:59.186Z,32.73
2019-05-21T23:25:28.459Z,32.70
2019-05-21T23:27:57.060Z,30.93
2019-05-21T23:30:26.132Z,32.63
2019-05-21T23:32:55.428Z,32.60
2019-05-21T23:35:24.256Z,33.20
2019-05-21T23:37:53.371Z,29.73
2019-05-21T23:40:22.151Z,28.47
2019-05-21T23:42:50.814Z,29.00
2019-05-21T23:45:19.524Z,28.13
2019-05-21T23:47:48.428Z,28.53
2019-05-21T23:50:18.161Z,27.27
2019-05-21T23:52:47.064Z,28.17
2019-05-21T23:55:15.618Z,29.70
2019-05-21T23:57:44.799Z,28.77
